• Join FlightAware (Why Join?)
  • Login
  • US Flag 
05:41AM EDT


 

Airport Tracker/Info


-or-


 

Live Flight TrackerFlight Track Log ✈ QJE1930 ✈ 06-Sep-2013 ✈ YPPH / PER - YBRM / BME

Flight Track Log - Related Links

Times and Time Zones

All times are in EDT time to prevent confusion due to time zone crossing. See the QJE1930 flight status page for this flight to view local times or setup timezone preferences in your user account.

Time Position Orientation Groundspeed Altitude Reporting Facility
EDT Latitude Longitude Course Direction KTS MPH feet Rate Location/Type
03:37AM -31.9350 115.9660 140° Southeast 105 121  Level FlightAware
03:38AM -31.9490 115.9630 190° South 167 192 1,560 Level FlightAware
03:38AM -31.9670 115.9570 196° South 164 189 1,200 2,400 Climbing FlightAware
03:38AM -31.9830 115.9520 195° South 169 194 1,800 1,620 Climbing FlightAware
03:39AM -32.0000 115.9490 189° South 191 220 2,300 1,500 Climbing FlightAware
03:39AM -32.0190 115.9540 167° South 216 249 2,800 1,440 Climbing FlightAware
03:39AM -32.0230 115.9570 148° Southeast 212 244 2,900 1,560 Climbing FlightAware
03:39AM -32.0310 115.9650 140° Southeast 222 255 3,200 1,800 Climbing FlightAware
03:39AM -32.0360 115.9760 118° Southeast 235 270 3,500 1,800 Climbing FlightAware
03:40AM -32.0430 116.0020 108° East 257 296 4,100 2,520 Climbing FlightAware
03:40AM -32.0490 116.0290 105° East 259 298 5,200 2,700 Climbing FlightAware
03:40AM -32.0560 116.0570 106° East 271 312 5,900 2,400 Climbing FlightAware
03:41AM -32.0630 116.0870 105° East 279 321 6,800 2,820 Climbing FlightAware
03:41AM -32.0690 116.1150 104° East 281 323 7,800 2,820 Climbing FlightAware
03:41AM -32.0770 116.1470 106° East 289 333 8,700 2,580 Climbing FlightAware
03:42AM -32.0830 116.1860 100° East 296 341 9,800 2,160 Climbing FlightAware
03:42AM -32.0760 116.2270 79° East 310 357 10,600 1,560 Climbing FlightAware
03:43AM -32.0620 116.2510 55° Northeast 322 371 10,900 1,320 Climbing FlightAware
03:43AM -32.0270 116.2930 55° Northeast 353 406 11,700 1,680 Climbing FlightAware
03:43AM -32.0226 116.2979 55° Northeast 338 389 11,900 1,620 Climbing Aus ATC (RADAR)
03:44AM -31.9850 116.3450 46° Northeast 376 433 12,700 1,920 Climbing FlightAware
03:44AM -31.9450 116.3950 47° Northeast 379 436 14,000 2,520 Climbing FlightAware
03:45AM -31.9022 116.4483 47° Northeast 380 437 15,500 2,280 Climbing Aus ATC (RADAR)
03:45AM -31.9010 116.4500 47° Northeast 387 445 15,400 2,400 Descending FlightAware
03:45AM -31.8582 116.5031 47° Northeast 387 445 16,900 2,220 Climbing Aus ATC (RADAR)
03:45AM -31.8510 116.5130 47° Northeast 399 459 16,900 1,740 Level FlightAware
03:46AM -31.8110 116.5610 46° Northeast 404 465 18,000 1,980 Climbing FlightAware
03:47AM -31.7680 116.6160 47° Northeast 406 467 19,100 1,800 Climbing FlightAware
03:47AM -31.7160 116.6790 46° Northeast 422 486 20,200 1,740 Climbing FlightAware
03:48AM -31.6700 116.7370 47° Northeast 427 491 21,200 1,740 Climbing FlightAware
03:48AM -31.6140 116.8050 46° Northeast 428 493 22,400 1,440 Climbing FlightAware
03:49AM -31.5610 116.8620 43° Northeast 436 502 23,100 1,320 Climbing FlightAware
03:50AM -31.4984 116.9010 43° Northeast 428 493 24,000 1,320 Climbing Aus ATC (RADAR)
03:50AM -31.4970 116.9010 43° Northeast 432 497 23,900 1,140 Descending FlightAware
03:50AM -31.4310 116.9280 19° North 430 495 24,700 1,320 Climbing FlightAware
03:51AM -31.3720 116.9530 20° North 441 507 25,400 1,260 Climbing FlightAware
03:51AM -31.3010 116.9820 19° North 447 514 26,200 1,080 Climbing FlightAware
03:52AM -31.2310 117.0110 20° North 448 516 26,700 1,080 Climbing FlightAware
03:53AM -31.1570 117.0410 19° North 456 525 27,500 1,320 Climbing FlightAware
03:53AM -31.0890 117.0690 19° North 458 527 28,300 1,260 Climbing FlightAware
03:54AM -31.0190 117.0980 20° North 458 527 29,000 1,140 Climbing FlightAware
03:54AM -30.9470 117.1280 20° North 460 529 29,700 1,020 Climbing FlightAware
03:55AM -30.8840 117.1540 20° North 462 532 30,200 1,080 Climbing FlightAware
03:55AM -30.8090 117.1850 20° North 455 524 31,000 1,560 Climbing FlightAware
03:56AM -30.7482 117.2137 20° North 460 529 32,000 1,620 Climbing Aus ATC (RADAR)
03:56AM -30.7350 117.2200 20° North 456 525 32,000 720 Level FlightAware
03:57AM -30.6695 117.2503 20° North 459 528 32,500 720 Climbing Aus ATC (RADAR)
03:57AM -30.6710 117.2500 20° North 451 519 32,400 480 Descending FlightAware
03:57AM -30.5990 117.2840 22° Northeast 456 525 32,800 480 Climbing FlightAware
03:58AM -30.5310 117.3150 21° North 464 534 33,000 120 Climbing FlightAware
03:58AM -30.4620 117.3460 21° North 451 519 33,000  Level FlightAware
03:59AM -30.3950 117.3770 22° Northeast 451 519 33,000  Level FlightAware
04:00AM -30.3220 117.4110 22° Northeast 452 520 33,000  Level FlightAware
04:00AM -30.2500 117.4430 21° North 450 518 33,000 120 Level FlightAware
04:01AM -30.1751 117.4773 21° North 458 527 33,200  Climbing Aus ATC (RADAR)
04:01AM -30.1710 117.4790 21° North 450 518 33,000 -360 Descending FlightAware
04:01AM -30.1070 117.5080 21° North 450 518 33,000  Level FlightAware
04:02AM -30.0310 117.5430 22° Northeast 449 517 33,000  Level FlightAware
04:02AM -29.9680 117.5720 22° Northeast 450 518 33,000 180 Level FlightAware
04:03AM -29.8985 117.6022 22° Northeast 462 532 33,200  Climbing Aus ATC (RADAR)
04:03AM -29.8940 117.6050 22° Northeast 451 519 33,000  Descending FlightAware
04:04AM -29.8291 117.6327 22° Northeast 460 529 33,200  Climbing Aus ATC (RADAR)
04:04AM -29.8260 117.6360 22° Northeast 453 521 33,000  Descending FlightAware
04:04AM -29.7507 117.6697 22° Northeast 457 526 33,200  Climbing Aus ATC (RADAR)
04:04AM -29.7540 117.6690 22° Northeast 452 520 33,000 -420 Descending FlightAware
04:05AM -29.6910 117.6970 22° Northeast 452 520 33,000 300 Level FlightAware
04:05AM -29.6806 117.6998 22° Northeast 460 529 33,200  Climbing Aus ATC (RADAR)
04:05AM -29.6170 117.7300 21° North 451 519 33,000  Descending FlightAware
04:06AM -29.5425 117.7626 21° North 458 527 33,200  Climbing Aus ATC (RADAR)
04:06AM -29.5440 117.7630 21° North 452 520 33,000 -360 Descending FlightAware
04:07AM -29.4730 117.7950 21° North 452 520 33,000  Level FlightAware
04:07AM -29.4090 117.8240 22° Northeast 452 520 33,000  Level FlightAware
04:08AM -29.3400 117.8550 21° North 453 521 33,000  Level FlightAware
04:08AM -29.2670 117.8870 21° North 453 521 33,000  Level FlightAware
04:09AM -29.1890 117.9220 21° North 454 522 33,000  Level FlightAware
04:10AM -29.1270 117.9490 21° North 454 522 33,000  Level FlightAware
04:10AM -29.0670 117.9750 21° North 454 522 33,000  Level FlightAware
04:11AM -29.0070 118.0020 21° North 454 522 33,000  Level FlightAware
04:12AM -28.9470 118.0280 21° North 454 522 33,000  Level FlightAware
04:12AM -28.8870 118.0540 21° North 454 522 33,000  Level FlightAware
04:13AM -28.8270 118.0810 22° Northeast 454 522 33,000  Level FlightAware
04:13AM -28.7670 118.1070 21° North 454 522 33,000  Level FlightAware
04:14AM -28.7070 118.1330 21° North 454 522 33,000  Level FlightAware
04:15AM -28.6470 118.1590 21° North 454 522 33,000  Level FlightAware
04:15AM -28.5870 118.1860 22° Northeast 454 522 33,000 60 Level FlightAware
04:16AM -28.3788 118.2730 22° Northeast 468 539 33,100  Climbing Aus ATC (RADAR)
04:16AM -28.5270 118.2120 22° Northeast 454 522 33,000 -180 Descending FlightAware
04:16AM -28.4670 118.2380 21° North 454 522 33,000  Level FlightAware
04:17AM -28.4070 118.2640 21° North 454 522 33,000  Level FlightAware
04:18AM -28.3470 118.2900 21° North 454 522 33,000  Level FlightAware
04:18AM -28.0318 118.4315 202° Southwest 33,000  Level Aus ATC (Calculated)
04:18AM -28.2870 118.3170 21° North 454 522 33,000  Level FlightAware
04:19AM -27.9524 118.4661 21° North 33,000  Level Aus ATC (Calculated)
04:21AM -27.7854 118.5344 20° North  Level Estimated
04:22AM -27.6714 118.5808 20° North  Level Estimated
04:22AM -27.6548 118.5955 21° North 33,000  Level Aus ATC (Calculated)
04:23AM -27.4314 118.6921 21° North 33,000  Level Aus ATC (Calculated)
04:24AM -27.4439 118.6809 20° North  Level Estimated
04:24AM -27.3476 118.7282 21° North 33,000  Level Aus ATC (Calculated)
04:25AM -27.3116 118.7403 20° North  Level Estimated
04:26AM -27.1784 118.7962 20° North  Level Estimated
04:27AM -27.0643 118.8419 20° North  Level Estimated
04:28AM -26.9502 118.8876 20° North  Level Estimated
04:29AM -26.8361 118.9331 20° North  Level Estimated
04:29AM -26.7036 119.0038 20° North 33,000  Level Aus ATC (Calculated)
04:30AM -26.7220 118.9786 20° North  Level Estimated
04:31AM -26.5341 119.0707 19° North  Level Estimated
04:32AM -26.4199 119.1157 19° North  Level Estimated
04:33AM -26.3057 119.1606 19° North  Level Estimated
04:33AM -26.3093 119.1672 19° North 503 579 33,100  Level Aus ATC (RADAR)
04:33AM -26.2236 119.2105 24° Northeast 511 588 33,100  Level Aus ATC (RADAR)
04:34AM -26.1605 119.2397 23° Northeast 505 581 33,100  Level Aus ATC (RADAR)
04:35AM -26.0186 119.2927 19° North 500 575 33,100  Level Aus ATC (RADAR)
04:36AM -25.8900 119.3556 24° Northeast 589 678 33,100  Level Aus ATC (RADAR)
04:36AM -25.8416 119.3718 17° North 505 581 33,100  Level Aus ATC (RADAR)
04:37AM -25.7684 119.4049 22° Northeast 491 565 33,100  Level Aus ATC (RADAR)
04:38AM -25.6602 119.4458 19° North 463 533 33,100  Level Aus ATC (RADAR)
04:38AM -25.6103 119.4652 19° North 462 532 33,100  Level Aus ATC (RADAR)
04:39AM -25.5395 119.4931 20° North 463 533 33,100  Level Aus ATC (RADAR)
04:40AM -25.4342 119.5386 21° North 478 550 33,100  Level Aus ATC (RADAR)
04:40AM -25.3601 119.5698 21° North 483 556 33,100  Level Aus ATC (RADAR)
04:41AM -25.2773 119.6033 20° North 480 552 33,100  Level Aus ATC (RADAR)
04:42AM -25.2150 119.6282 20° North 478 550 33,100  Level Aus ATC (RADAR)
04:42AM -25.1423 119.6580 20° North 477 549 33,100  Level Aus ATC (RADAR)
04:43AM -25.0181 119.7096 21° North 475 547 33,100  Level Aus ATC (RADAR)
04:43AM -24.9659 119.7315 21° North 477 549 33,100  Level Aus ATC (RADAR)
04:44AM -24.8953 119.7596 20° North 470 541 33,100  Level Aus ATC (RADAR)
04:45AM -24.8025 119.7979 21° North 473 544 33,100  Level Aus ATC (RADAR)
04:45AM -24.7320 119.8262 20° North 466 536 33,100  Level Aus ATC (RADAR)
04:46AM -24.6478 119.8617 21° North 479 551 33,100  Level Aus ATC (RADAR)
04:47AM -24.5787 119.8889 20° North 463 533 33,100  Level Aus ATC (RADAR)
04:47AM -24.5064 119.9185 20° North 471 542 33,100  Level Aus ATC (RADAR)
04:48AM -24.3954 119.9639 20° North 466 536 33,100  Level Aus ATC (RADAR)
04:49AM -24.3438 119.9850 20° North 468 539 33,100  Level Aus ATC (RADAR)
04:49AM -24.2741 120.0131 20° North 463 533 33,100  Level Aus ATC (RADAR)
04:50AM -24.1815 120.0509 20° North 469 540 33,100  Level Aus ATC (RADAR)
04:50AM -24.1097 120.0796 20° North 469 540 33,100  Level Aus ATC (RADAR)
04:51AM -24.0189 120.1161 20° North 465 535 33,100  Level Aus ATC (RADAR)
04:52AM -23.9674 120.1370 20° North 468 539 33,100  Level Aus ATC (RADAR)
04:52AM -23.8942 120.1665 20° North 474 545 33,100  Level Aus ATC (RADAR)
04:53AM -23.7704 120.2165 20° North 476 548 33,100  Level Aus ATC (RADAR)
04:54AM -23.7230 120.2364 21° North 464 534 33,100  Level Aus ATC (RADAR)
04:54AM -23.6481 120.2657 20° North 481 554 33,100  Level Aus ATC (RADAR)
04:55AM -23.5632 120.3014 21° North 450 518 33,100  Level Aus ATC (RADAR)
04:56AM -23.4874 120.3307 19° North 472 543 33,100  Level Aus ATC (RADAR)
04:56AM -23.3849 120.3714 20° North 473 544 33,100  Level Aus ATC (RADAR)
04:57AM -23.3353 120.3917 21° North 468 539 33,100  Level Aus ATC (RADAR)
04:57AM -23.2629 120.4202 20° North 470 541 33,100  Level Aus ATC (RADAR)
04:59AM -23.1003 120.4852 20° North 466 536 33,100  Level Aus ATC (RADAR)
04:59AM -23.0589 120.5012 20° North 467 537 33,100  Level Aus ATC (RADAR)
05:00AM -22.9994 120.5256 21° North 463 533 33,100  Level Aus ATC (RADAR)
05:00AM -22.9072 120.5625 20° North 467 537 33,100  Level Aus ATC (RADAR)
05:01AM -22.8241 120.5944 19° North 471 542 33,100  Level Aus ATC (RADAR)
05:02AM -22.7341 120.6312 21° North 462 532 33,100  Level Aus ATC (RADAR)
05:02AM -22.6826 120.6514 20° North 466 536 33,100  Level Aus ATC (RADAR)
05:03AM -22.6116 120.6797 20° North 466 536 33,100  Level Aus ATC (RADAR)
05:03AM -22.5188 120.7157 20° North 467 537 33,100  Level Aus ATC (RADAR)
05:04AM -22.4678 120.7360 20° North 468 539 33,100  Level Aus ATC (RADAR)
05:04AM -22.3959 120.7645 20° North 469 540 33,100  Level Aus ATC (RADAR)
05:05AM -22.3034 120.8011 20° North 468 539 33,100  Level Aus ATC (RADAR)
05:06AM -22.2310 120.8293 20° North 470 541 33,100  Level Aus ATC (RADAR)
05:07AM -22.1373 120.8657 20° North 475 547 33,100 -120 Level Aus ATC (RADAR)
05:07AM -22.0853 120.8861 20° North 475 547 33,000 -120 Descending Aus ATC (RADAR)
05:08AM -22.0127 120.9145 20° North 473 544 33,000  Level Aus ATC (RADAR)
05:09AM -21.8840 120.9660 20° North 479 551 33,000  Level FlightAware
05:09AM -21.7880 121.0040 20° North 481 554 33,000  Level FlightAware
05:10AM -21.7040 121.0360 19° North 481 554 33,000  Level FlightAware
05:11AM -21.6115 121.0676 19° North 526 605 33,000  Level Aus ATC (RADAR)
05:11AM -21.6250 121.0660 19° North 481 554 33,000  Level FlightAware
05:11AM -21.5820 121.0820 19° North 481 554 33,000  Level FlightAware
05:12AM -21.4970 121.1180 22° Northeast 483 556 33,000  Level FlightAware
05:12AM -21.4360 121.1410 19° North 483 556 33,000  Level FlightAware
05:13AM -21.3550 121.1730 20° North 484 557 33,000  Level FlightAware
05:13AM -21.2860 121.1990 19° North 484 557 33,000  Level FlightAware
05:14AM -21.2220 121.2240 20° North 484 557 33,000  Level FlightAware
05:15AM -21.1550 121.2500 20° North 484 557 33,000  Level FlightAware
05:15AM -21.0910 121.2750 20° North 484 557 33,000  Level FlightAware
05:16AM -20.9770 121.3190 20° North 488 562 33,000  Level FlightAware
05:17AM -20.8700 121.3590 19° North 488 562 33,000  Level FlightAware
05:17AM -20.7682 121.3996 203° Southwest 33,000  Level Aus ATC (Calculated)
05:17AM -20.8050 121.3830 19° North 488 562 33,000  Level FlightAware
05:18AM -20.7400 121.4070 19° North 488 562 33,000  Level FlightAware
05:18AM -20.6730 121.4320 19° North 488 562 33,000  Level FlightAware
05:19AM -20.6070 121.4560 19° North 488 562 33,000  Level FlightAware
05:20AM -20.5420 121.4800 19° North 488 562 33,000  Level FlightAware
05:20AM -20.4117 121.5365 205° Southwest 33,000  Level Aus ATC (Calculated)
05:20AM -20.4770 121.5040 19° North 488 562 33,000  Level FlightAware
05:21AM -20.4110 121.5280 19° North 488 562 33,000  Level FlightAware
05:21AM -20.3440 121.5530 19° North 488 562 33,000  Level FlightAware
05:22AM -20.2790 121.5770 19° North 488 562 33,000  Level FlightAware
05:22AM -20.1442 121.6388 207° Southwest 33,000  Level Aus ATC (Calculated)
05:23AM -20.2130 121.6010 19° North 488 562 33,000  Level FlightAware
05:23AM -20.0376 121.6795 205° Southwest 11,700  Descending Aus ATC (Calculated)
05:23AM -20.1480 121.6250 19° North 488 562 33,000 29,040 Climbing FlightAware
05:24AM -19.9392 121.7169 204° Southwest 11,700  Descending Aus ATC (Calculated)
05:24AM -20.0830 121.6490 19° North 488 562 33,000 34,500 Climbing FlightAware
05:24AM -20.0170 121.6730 19° North 488 562 33,000  Level FlightAware
05:25AM -19.9520 121.6970 19° North 488 562 33,000  Level FlightAware
05:25AM -19.7516 121.7883 205° Southwest 11,700  Descending Aus ATC (Calculated)
05:26AM -19.8870 121.7210 19° North 488 562 33,000 91,260 Climbing FlightAware
05:27AM -19.5874 121.8506 360° North 11,700 -12,060 Descending Aus ATC (Calculated)
05:27AM -19.5874 121.8506 20° North 11,700  Level Aus ATC (Calculated)
05:29AM -19.4648 121.8970 20° North  Level FlightAware Approximate
05:29AM -19.4438 121.9049 20° North 11,700  Level Aus ATC (Calculated)
05:30AM -19.2552 121.9762 20° North 11,700  Level Aus ATC (Calculated)
05:32AM -19.0692 122.0463 20° North  Level FlightAware Approximate
05:33AM -18.9542 122.0895 20° North  Level FlightAware Approximate
05:33AM -18.8975 122.1108 20° North 11,700  Level Aus ATC (Calculated)
05:35AM -18.7096 122.1813 20° North  Level FlightAware Approximate
05:36AM -18.5945 122.2244 20° North  Level FlightAware Approximate
05:36AM -18.4950 122.2616 20° North 11,700  Level Aus ATC (Calculated)
05:38AM -18.3070 122.3318 20° North  Level FlightAware Approximate
05:38AM -18.3765 122.2762 174° South  Level Aus ATC (Calculated)
05:40AM -18.5950 122.3010 174° South  Level FlightAware Approximate
05:41AM -18.4736 122.2872 354° North  Level FlightAware Approximate
05:41AM -18.1305 122.2532 355° North 500  Level Aus ATC (Calculated)
05:42AM -18.0691 122.2472 360° North 500  Level Aus ATC (Calculated)
05:42AM -18.0691 122.2472 353° North 500  Level Aus ATC (Calculated)
05:44AM -17.9447 122.2317 175° South  Level Estimated
05:45AM -17.9447 122.2317 355° North  Level Estimated
05:46AM -17.9447 122.2317 115° Southeast  Level Estimated
05:47AM -17.9447 122.2317 115° Southeast  Level Estimated